createdAt,value
2022-08-05T00:02:30.360Z,4.07
2022-08-05T00:04:59.390Z,3.80
2022-08-05T00:11:28.007Z,3.80
2022-08-05T00:14:16.943Z,4.40
2022-08-05T00:16:52.730Z,4.87
2022-08-05T00:20:02.731Z,4.20
2022-08-05T00:22:41.228Z,5.00
2022-08-05T00:25:49.719Z,4.27
2022-08-05T00:28:37.939Z,4.67
2022-08-05T00:31:54.085Z,4.97
2022-08-05T00:34:55.197Z,4.10
2022-08-05T00:37:24.621Z,4.40
2022-08-05T00:39:58.325Z,4.63
2022-08-05T00:42:41.620Z,5.43
2022-08-05T00:45:28.301Z,4.47
2022-08-05T00:48:12.070Z,5.50
2022-08-05T00:51:08.751Z,5.43
2022-08-05T00:54:12.520Z,4.80
2022-08-05T00:56:51.805Z,5.57
2022-08-05T00:59:21.245Z,5.33
2022-08-05T01:01:51.098Z,4.50
2022-08-05T01:04:29.897Z,5.03
2022-08-05T01:07:35.406Z,4.83
2022-08-05T01:10:16.603Z,4.43
2022-08-05T01:13:00.397Z,4.60
2022-08-05T01:15:59.495Z,4.50
2022-08-05T01:18:56.392Z,4.20
2022-08-05T01:21:50.580Z,4.60
2022-08-05T01:24:48.665Z,4.23
2022-08-05T01:27:55.710Z,5.07
2022-08-05T01:30:53.777Z,4.30
2022-08-05T01:33:35.560Z,4.00
2022-08-05T01:36:34.153Z,4.80
2022-08-05T01:39:11.376Z,5.17
2022-08-05T01:41:49.381Z,5.53
2022-08-05T01:44:23.206Z,4.97
2022-08-05T01:47:05.245Z,4.97
2022-08-05T01:50:00.438Z,5.13
2022-08-05T01:52:29.964Z,5.20
2022-08-05T01:55:11.805Z,5.17
2022-08-05T01:58:29.224Z,4.80
2022-08-05T02:01:12.756Z,4.67
2022-08-05T02:04:38.607Z,5.10
2022-08-05T02:07:22.090Z,5.53
2022-08-05T02:10:03.373Z,5.30
2022-08-05T02:12:43.483Z,5.03
2022-08-05T02:19:27.321Z,4.80
2022-08-05T02:22:33.644Z,4.77
2022-08-05T02:25:12.638Z,5.00
2022-08-05T02:28:00.525Z,5.67
2022-08-05T02:30:51.785Z,6.03
2022-08-05T02:33:24.314Z,5.83
2022-08-05T02:36:20.103Z,5.37
2022-08-05T02:38:56.308Z,5.67
2022-08-05T02:41:28.611Z,6.03
2022-08-05T02:44:12.398Z,6.57
2022-08-05T02:46:58.934Z,5.53
2022-08-05T02:49:59.855Z,5.93
2022-08-05T02:52:39.795Z,5.00
2022-08-05T02:55:17.506Z,6.00
2022-08-05T02:58:28.797Z,5.80
2022-08-05T03:01:04.197Z,7.07
2022-08-05T03:04:02.222Z,5.83
2022-08-05T03:06:54.597Z,6.50
2022-08-05T03:09:15.947Z,6.33
2022-08-05T03:11:57.107Z,7.47
2022-08-05T03:14:30.372Z,5.60
2022-08-05T03:17:03.342Z,7.07
2022-08-05T03:19:38.271Z,7.17
2022-08-05T03:22:16.308Z,7.07
2022-08-05T03:24:52.342Z,6.60
2022-08-05T03:27:59.064Z,5.90
2022-08-05T03:30:34.010Z,5.97
2022-08-05T03:33:04.296Z,5.93
2022-08-05T03:35:40.885Z,5.83
2022-08-05T03:38:16.625Z,5.33
2022-08-05T03:40:54.193Z,5.90
2022-08-05T03:44:08.598Z,5.70
2022-08-05T03:46:22.706Z,6.00
2022-08-05T03:48:57.783Z,6.33
2022-08-05T03:52:38.944Z,5.57
2022-08-05T03:55:49.808Z,6.33
2022-08-05T03:57:56.272Z,6.10
2022-08-05T04:00:41.866Z,6.70
2022-08-05T04:03:26.601Z,6.90
2022-08-05T04:05:57.945Z,7.50
2022-08-05T04:08:36.326Z,7.90
2022-08-05T04:11:08.437Z,7.90
2022-08-05T04:13:53.445Z,6.67
2022-08-05T04:16:25.508Z,6.73
2022-08-05T04:19:00.920Z,6.40
2022-08-05T04:22:08.788Z,7.67
2022-08-05T04:24:44.198Z,6.73
2022-08-05T04:27:15.196Z,7.30
2022-08-05T04:29:54.210Z,7.87
2022-08-05T04:32:31.101Z,7.80
2022-08-05T04:35:04.756Z,8.70
2022-08-05T04:38:01.075Z,9.00
2022-08-05T04:40:23.132Z,10.37
2022-08-05T04:42:51.511Z,10.03
2022-08-05T04:46:27.841Z,11.37
2022-08-05T04:49:04.831Z,10.97
2022-08-05T04:52:11.757Z,10.17
2022-08-05T04:54:49.350Z,10.57
2022-08-05T04:57:18.290Z,12.60
2022-08-05T04:59:48.165Z,11.17
2022-08-05T05:02:37.111Z,12.23
2022-08-05T05:05:26.045Z,10.50
2022-08-05T05:08:01.750Z,11.20
2022-08-05T05:10:33.276Z,11.63
2022-08-05T05:13:04.851Z,11.30
2022-08-05T05:15:59.105Z,10.47
2022-08-05T05:18:37.053Z,11.00
2022-08-05T05:21:28.771Z,11.67
2022-08-05T05:24:56.061Z,11.17
2022-08-05T05:27:16.070Z,10.40
2022-08-05T05:30:04.898Z,10.63
2022-08-05T05:32:42.495Z,10.87
2022-08-05T05:35:11.703Z,11.50
2022-08-05T05:38:30.518Z,11.73
2022-08-05T05:40:58.979Z,12.43
2022-08-05T05:43:57.957Z,12.63
2022-08-05T05:46:50.183Z,11.47
2022-08-05T05:49:45.515Z,11.37
2022-08-05T05:52:38.023Z,10.93
2022-08-05T05:55:13.779Z,11.00
2022-08-05T05:57:52.813Z,11.67
2022-08-05T06:00:31.296Z,10.80
2022-08-05T06:07:06.107Z,10.63
2022-08-05T06:10:00.557Z,11.53
2022-08-05T06:13:06.879Z,10.67
2022-08-05T06:16:40.405Z,11.77
2022-08-05T06:20:07.016Z,9.67
2022-08-05T06:23:21.568Z,9.50
2022-08-05T06:26:23.896Z,10.07
2022-08-05T06:28:59.830Z,9.67
2022-08-05T06:31:50.643Z,9.57
2022-08-05T06:34:26.425Z,8.87
2022-08-05T06:36:57.911Z,8.10
2022-08-05T06:39:37.836Z,7.70
2022-08-05T06:42:17.826Z,8.13
2022-08-05T06:44:50.243Z,8.43
2022-08-05T06:48:12.468Z,7.63
2022-08-05T06:50:26.262Z,7.70
2022-08-05T06:56:04.670Z,8.47
2022-08-05T06:59:01.552Z,7.37
2022-08-05T07:01:52.921Z,7.00
2022-08-05T07:04:23.659Z,7.23
2022-08-05T07:06:56.521Z,8.50
2022-08-05T07:09:32.720Z,7.73
2022-08-05T07:12:32.495Z,7.53
2022-08-05T07:15:34.591Z,7.40
2022-08-05T07:18:14.627Z,6.10
2022-08-05T07:20:51.014Z,5.93
2022-08-05T07:23:26.301Z,5.63
2022-08-05T07:25:57.760Z,5.63
2022-08-05T07:28:26.638Z,6.77
2022-08-05T07:30:55.277Z,5.00
2022-08-05T07:33:36.792Z,6.63
2022-08-05T07:36:20.326Z,6.30
2022-08-05T07:38:54.897Z,5.93
2022-08-05T07:42:12.893Z,5.10
2022-08-05T07:44:19.764Z,5.13
2022-08-05T07:46:50.643Z,5.20
2022-08-05T07:49:21.576Z,5.47
2022-08-05T07:51:55.059Z,4.43
2022-08-05T07:54:31.718Z,4.60
2022-08-05T07:57:58.889Z,4.43
2022-08-05T08:08:12.357Z,5.67
2022-08-05T08:18:50.211Z,4.30
2022-08-05T08:21:56.564Z,4.47
2022-08-05T08:24:51.991Z,4.00
2022-08-05T08:28:36.119Z,3.50
2022-08-05T08:31:08.321Z,4.10
2022-08-05T08:33:58.401Z,3.80
2022-08-05T08:42:51.015Z,4.10
2022-08-05T08:54:36.451Z,4.67
2022-08-05T08:57:57.936Z,4.27
2022-08-05T09:05:16.936Z,4.03
2022-08-05T09:08:30.095Z,4.13
2022-08-05T09:28:47.142Z,4.17
2022-08-05T10:01:02.214Z,4.03
2022-08-05T10:03:58.772Z,4.10
2022-08-05T10:06:28.895Z,3.97
2022-08-05T10:09:27.825Z,4.17
2022-08-05T10:12:18.891Z,3.30
2022-08-05T10:15:16.233Z,3.27
2022-08-05T10:18:03.412Z,3.40
2022-08-05T10:20:33.321Z,3.80
2022-08-05T10:23:01.973Z,3.40
2022-08-05T10:25:31.613Z,3.33
2022-08-05T10:28:13.635Z,3.70
2022-08-05T10:32:49.583Z,3.30
2022-08-05T10:33:37.137Z,2.90
2022-08-05T10:36:08.317Z,2.47
2022-08-05T10:38:38.658Z,3.00
2022-08-05T10:41:23.433Z,2.70
2022-08-05T10:43:59.293Z,2.40
2022-08-05T10:46:44.801Z,2.17
2022-08-05T10:49:16.759Z,2.30
2022-08-05T10:51:53.056Z,2.07
2022-08-05T10:54:56.225Z,2.57
2022-08-05T10:57:31.688Z,2.07
2022-08-05T11:00:18.609Z,2.80
2022-08-05T11:03:25.532Z,2.77
2022-08-05T11:06:08.526Z,2.60
2022-08-05T11:09:39.074Z,3.37
2022-08-05T11:12:50.909Z,3.13
2022-08-05T11:16:00.895Z,3.50
2022-08-05T11:18:34.333Z,3.30
2022-08-05T11:21:11.322Z,3.10
2022-08-05T11:24:05.409Z,2.90
2022-08-05T11:26:43.502Z,2.87
2022-08-05T11:29:36.169Z,2.83
2022-08-05T11:32:24.586Z,2.90
2022-08-05T11:34:54.136Z,3.60
2022-08-05T11:38:29.278Z,3.20
2022-08-05T11:41:35.041Z,3.23
2022-08-05T11:44:00.890Z,3.63
2022-08-05T11:46:37.435Z,3.40
2022-08-05T11:49:08.027Z,3.93
2022-08-05T11:51:44.077Z,3.50
2022-08-05T11:54:33.175Z,3.83
2022-08-05T11:57:08.353Z,3.27
2022-08-05T11:59:53.329Z,3.03
2022-08-05T12:02:31.342Z,4.07
2022-08-05T12:05:07.189Z,4.03
2022-08-05T12:08:08.585Z,4.10
2022-08-05T12:10:43.770Z,4.10
2022-08-05T12:13:28.042Z,3.90
2022-08-05T12:16:14.974Z,4.70
2022-08-05T12:18:49.501Z,4.77
2022-08-05T12:21:24.159Z,4.37
2022-08-05T12:24:00.090Z,4.80
2022-08-05T12:26:36.283Z,4.23
2022-08-05T12:29:09.546Z,4.20
2022-08-05T12:31:49.719Z,3.57
2022-08-05T12:34:25.831Z,2.80
2022-08-05T12:36:56.338Z,3.70
2022-08-05T12:39:34.672Z,4.30
2022-08-05T12:42:14.803Z,4.40
2022-08-05T12:44:47.546Z,4.30
2022-08-05T12:47:28.827Z,4.23
2022-08-05T12:50:04.166Z,3.60
2022-08-05T12:52:39.365Z,3.23
2022-08-05T12:55:23.883Z,3.90
2022-08-05T12:58:50.460Z,3.30
2022-08-05T13:02:00.489Z,3.57
2022-08-05T13:03:42.155Z,3.47
2022-08-05T13:06:17.126Z,3.33
2022-08-05T13:08:52.267Z,3.23
2022-08-05T13:11:25.499Z,3.60
2022-08-05T13:14:19.329Z,2.67
2022-08-05T13:16:56.693Z,2.50
2022-08-05T13:19:52.382Z,2.50
2022-08-05T13:22:28.299Z,2.53
2022-08-05T13:25:00.831Z,2.43
2022-08-05T13:27:35.582Z,2.60
2022-08-05T13:30:35.364Z,2.30
2022-08-05T13:33:01.104Z,2.40
2022-08-05T13:35:42.437Z,2.30
2022-08-05T13:38:28.635Z,2.20
2022-08-05T13:41:00.208Z,2.37
2022-08-05T13:43:45.651Z,2.17
2022-08-05T13:46:35.745Z,1.87
2022-08-05T13:49:10.343Z,2.00
2022-08-05T13:51:45.893Z,2.00
2022-08-05T13:54:16.213Z,1.90
2022-08-05T13:56:51.056Z,2.30
2022-08-05T13:59:24.337Z,1.90
2022-08-05T14:01:57.359Z,2.10
2022-08-05T14:04:49.967Z,1.93
2022-08-05T14:07:26.187Z,1.83
2022-08-05T14:10:10.803Z,1.60
2022-08-05T14:12:39.250Z,1.20
2022-08-05T14:16:07.404Z,1.53
2022-08-05T14:17:57.813Z,1.60
2022-08-05T14:20:29.581Z,1.90
2022-08-05T14:22:58.115Z,1.40
2022-08-05T14:25:28.364Z,1.60
2022-08-05T14:27:59.007Z,1.13
2022-08-05T14:30:28.355Z,1.30
2022-08-05T14:32:58.792Z,1.63
2022-08-05T14:35:37.160Z,1.07
2022-08-05T14:38:33.298Z,0.97
2022-08-05T14:41:06.673Z,1.10
2022-08-05T14:43:57.672Z,1.00
2022-08-05T14:46:28.201Z,0.90
2022-08-05T14:48:58.552Z,1.00
2022-08-05T14:51:30.973Z,0.90
2022-08-05T14:54:26.449Z,1.20
2022-08-05T14:56:54.662Z,0.80
2022-08-05T14:59:23.114Z,0.80
2022-08-05T15:01:51.485Z,0.97
2022-08-05T15:04:22.833Z,0.87
2022-08-05T15:06:54.206Z,1.70
2022-08-05T15:09:52.070Z,1.53
2022-08-05T15:12:16.624Z,0.90
2022-08-05T15:14:50.163Z,1.00
2022-08-05T15:17:47.271Z,0.70
2022-08-05T15:20:19.055Z,0.60
2022-08-05T15:22:54.207Z,0.80
2022-08-05T15:25:51.945Z,0.70
2022-08-05T15:28:16.308Z,0.50
2022-08-05T15:30:46.238Z,0.70
2022-08-05T15:34:04.916Z,0.77
2022-08-05T15:36:03.913Z,0.80
2022-08-05T15:38:36.468Z,0.80
2022-08-05T15:41:23.923Z,0.70
2022-08-05T15:43:54.601Z,0.80
2022-08-05T15:46:24.836Z,0.70
2022-08-05T15:48:58.675Z,1.00
2022-08-05T15:52:10.309Z,0.90
2022-08-05T15:54:37.457Z,0.70
2022-08-05T15:57:08.037Z,0.80
2022-08-05T15:59:38.154Z,0.73
2022-08-05T16:02:09.730Z,0.90
2022-08-05T16:04:43.491Z,0.83
2022-08-05T16:07:13.294Z,1.00
2022-08-05T16:09:43.604Z,0.80
2022-08-05T16:12:13.194Z,1.00
2022-08-05T16:14:43.782Z,0.80
2022-08-05T16:17:12.720Z,0.90
2022-08-05T16:20:04.269Z,0.77
2022-08-05T16:22:34.458Z,0.90
2022-08-05T16:25:09.425Z,0.90
2022-08-05T16:28:00.179Z,1.10
2022-08-05T16:30:29.150Z,1.10
2022-08-05T16:32:57.767Z,1.00
2022-08-05T16:35:33.748Z,1.00
2022-08-05T16:38:23.898Z,1.10
2022-08-05T16:40:55.515Z,0.80
2022-08-05T16:43:31.382Z,0.90
2022-08-05T16:46:06.812Z,1.23
2022-08-05T16:48:41.124Z,0.70
2022-08-05T16:51:10.759Z,0.90
2022-08-05T16:54:04.927Z,2.47
2022-08-05T16:56:30.269Z,1.60
2022-08-05T16:59:08.335Z,1.20
2022-08-05T17:01:53.096Z,1.50
2022-08-05T17:04:26.508Z,0.97
2022-08-05T17:06:56.944Z,0.90
2022-08-05T17:09:29.534Z,0.90
2022-08-05T17:11:59.758Z,1.10
2022-08-05T17:14:37.729Z,1.00
2022-08-05T17:17:14.444Z,0.90
2022-08-05T17:19:46.067Z,1.00
2022-08-05T17:22:24.998Z,0.90
2022-08-05T17:24:57.853Z,1.10
2022-08-05T17:27:33.725Z,0.73
2022-08-05T17:30:12.185Z,0.70
2022-08-05T17:32:54.323Z,0.90
2022-08-05T17:35:23.000Z,1.10
2022-08-05T17:37:50.974Z,0.87
2022-08-05T17:40:22.617Z,0.80
2022-08-05T17:42:52.949Z,0.80
2022-08-05T17:45:25.018Z,0.90
2022-08-05T17:47:57.705Z,1.10
2022-08-05T17:50:30.141Z,0.90
2022-08-05T17:53:02.670Z,0.90
2022-08-05T17:55:38.468Z,0.90
2022-08-05T17:58:11.116Z,1.00
2022-08-05T18:00:45.417Z,0.97
2022-08-05T18:03:56.593Z,0.87
2022-08-05T18:06:12.127Z,0.77
2022-08-05T18:08:44.586Z,0.90
2022-08-05T18:11:23.684Z,0.90
2022-08-05T18:13:53.215Z,0.70
2022-08-05T18:16:22.698Z,0.97
2022-08-05T18:18:51.630Z,0.90
2022-08-05T18:21:22.762Z,0.80
2022-08-05T18:23:54.290Z,1.10
2022-08-05T18:26:29.251Z,0.90
2022-08-05T18:28:58.353Z,0.80
2022-08-05T18:31:33.913Z,1.03
2022-08-05T18:34:06.210Z,1.07
2022-08-05T18:36:41.301Z,0.97
2022-08-05T18:39:22.236Z,1.30
2022-08-05T18:42:04.772Z,1.20
2022-08-05T18:44:51.677Z,1.10
2022-08-05T18:47:26.807Z,1.00
2022-08-05T18:50:13.282Z,1.00
2022-08-05T18:52:50.529Z,1.03
2022-08-05T18:55:21.569Z,1.00
2022-08-05T18:57:53.889Z,1.20
2022-08-05T19:00:28.361Z,1.20
2022-08-05T19:03:04.142Z,1.30
2022-08-05T19:06:12.713Z,1.13
2022-08-05T19:08:30.925Z,1.40
2022-08-05T19:11:04.494Z,1.70
2022-08-05T19:13:35.759Z,1.20
2022-08-05T19:16:25.067Z,1.30
2022-08-05T19:18:56.810Z,1.33
2022-08-05T19:21:27.715Z,1.17
2022-08-05T19:24:06.101Z,1.23
2022-08-05T19:26:54.344Z,1.07
2022-08-05T19:29:26.789Z,1.37
2022-08-05T19:32:05.434Z,1.10
2022-08-05T19:34:38.181Z,1.10
2022-08-05T19:37:06.633Z,1.20
2022-08-05T19:39:45.922Z,1.13
2022-08-05T19:42:35.736Z,1.13
2022-08-05T19:45:06.465Z,1.00
2022-08-05T19:47:37.646Z,0.90
2022-08-05T19:50:11.797Z,0.87
2022-08-05T19:52:41.163Z,1.10
2022-08-05T19:56:12.415Z,1.03
2022-08-05T19:58:14.193Z,1.00
2022-08-05T20:00:47.873Z,0.90
2022-08-05T20:03:16.054Z,0.90
2022-08-05T20:05:49.978Z,0.87
2022-08-05T20:08:18.886Z,1.10
2022-08-05T20:10:50.003Z,1.00
2022-08-05T20:13:30.365Z,1.10
2022-08-05T20:16:07.112Z,0.90
2022-08-05T20:18:36.223Z,0.90
2022-08-05T20:21:07.635Z,0.90
2022-08-05T20:23:40.480Z,0.90
2022-08-05T20:26:21.108Z,1.00
2022-08-05T20:28:51.051Z,1.33
2022-08-05T20:31:21.943Z,1.50
2022-08-05T20:33:51.589Z,1.00
2022-08-05T20:36:24.109Z,1.10
2022-08-05T20:38:54.674Z,1.20
2022-08-05T20:41:43.220Z,1.10
2022-08-05T20:44:19.037Z,1.07
2022-08-05T20:46:57.823Z,0.97
2022-08-05T20:49:26.437Z,1.03
2022-08-05T20:51:57.467Z,1.17
2022-08-05T20:54:43.010Z,1.03
2022-08-05T20:57:42.337Z,1.30
2022-08-05T21:00:20.553Z,1.10
2022-08-05T21:03:01.156Z,1.30
2022-08-05T21:05:48.377Z,1.70
2022-08-05T21:08:19.253Z,1.23
2022-08-05T21:10:49.186Z,1.30
2022-08-05T21:13:37.895Z,2.60
2022-08-05T21:16:06.899Z,2.30
2022-08-05T21:18:35.931Z,1.53
2022-08-05T21:21:04.151Z,1.40
2022-08-05T21:23:37.127Z,1.40
2022-08-05T21:26:14.291Z,1.30
2022-08-05T21:28:48.020Z,1.10
2022-08-05T21:31:19.207Z,1.17
2022-08-05T21:33:49.461Z,1.23
2022-08-05T21:36:27.604Z,1.10
2022-08-05T21:38:59.665Z,1.27
2022-08-05T21:41:33.834Z,0.90
2022-08-05T21:44:04.129Z,1.10
2022-08-05T21:46:34.534Z,1.30
2022-08-05T21:49:04.780Z,1.40
2022-08-05T21:52:21.434Z,1.23
2022-08-05T21:54:27.990Z,1.10
2022-08-05T21:57:28.390Z,1.10
2022-08-05T22:00:03.997Z,1.07
2022-08-05T22:02:41.826Z,1.27
2022-08-05T22:05:11.998Z,1.10
2022-08-05T22:07:59.091Z,1.30
2022-08-05T22:10:29.689Z,1.40
2022-08-05T22:14:06.358Z,1.13
2022-08-05T22:16:01.813Z,1.17
2022-08-05T22:18:36.293Z,0.80
2022-08-05T22:21:19.327Z,1.10
2022-08-05T22:24:08.841Z,1.17
2022-08-05T22:26:56.562Z,1.10
2022-08-05T22:29:26.758Z,1.17
2022-08-05T22:31:59.729Z,1.17
2022-08-05T22:34:32.410Z,1.30
2022-08-05T22:37:01.174Z,1.20
2022-08-05T22:39:33.900Z,1.20
2022-08-05T22:42:09.518Z,1.17
2022-08-05T22:44:42.536Z,1.07
2022-08-05T22:47:28.994Z,1.20
2022-08-05T22:50:20.046Z,1.40
2022-08-05T22:52:49.204Z,1.17
2022-08-05T22:55:19.180Z,1.13
2022-08-05T22:57:50.364Z,1.33
2022-08-05T23:00:20.584Z,1.10
2022-08-05T23:02:50.647Z,1.27
2022-08-05T23:05:19.385Z,1.37
2022-08-05T23:07:50.810Z,1.27
2022-08-05T23:10:19.636Z,1.13
2022-08-05T23:12:55.128Z,1.20
2022-08-05T23:15:29.030Z,1.30
2022-08-05T23:18:03.650Z,1.10
2022-08-05T23:20:37.423Z,1.00
2022-08-05T23:23:08.640Z,1.27
2022-08-05T23:25:52.196Z,1.10
2022-08-05T23:28:28.564Z,1.20
2022-08-05T23:31:16.280Z,1.30
2022-08-05T23:34:05.472Z,1.47
2022-08-05T23:36:39.837Z,1.47
2022-08-05T23:39:16.421Z,1.33
2022-08-05T23:41:51.972Z,1.47
2022-08-05T23:44:24.955Z,1.50
2022-08-05T23:46:53.402Z,1.17
2022-08-05T23:49:33.862Z,1.47
2022-08-05T23:52:25.105Z,1.53
2022-08-05T23:54:54.661Z,1.70
2022-08-05T23:57:24.596Z,1.63
